Time;durP1;ratioP1;P1;durP2;ratioP2;P2;SDS_P1;SDS_P2;PMS_P1;PMS_P2;Temp;Humidity;BMP_temperature;BMP_pressure;BME280_temperature;BME280_humidity;BME280_pressure;Samples;Min_cycle;Max_cycle;Signal;HPM_P1;HPM_P2
2022/08/28 00:01:21;;;;;;;26.70;24.23;;;;;;;;;;5051315;28;20572;-77
2022/08/28 00:03:48;;;;;;;27.87;25.33;;;;;;;;;;5050763;28;20453;-76
2022/08/28 00:06:15;;;;;;;26.67;23.90;;;;;;;;;;5050495;28;20848;-76
2022/08/28 00:08:45;;;;;;;27.67;24.97;;;;;;;;;;5049893;28;20517;-76
2022/08/28 00:11:12;;;;;;;26.60;24.00;;;;;;;;;;5048120;28;20996;-77
2022/08/28 00:13:40;;;;;;;25.83;23.47;;;;;;;;;;5049910;28;20441;-76
2022/08/28 00:16:08;;;;;;;24.37;22.17;;;;;;;;;;5050110;28;20493;-77
2022/08/28 00:18:35;;;;;;;27.63;25.03;;;;;;;;;;5051024;28;20450;-76
2022/08/28 00:21:02;;;;;;;28.37;25.77;;;;;;;;;;5050543;28;20827;-76
2022/08/28 00:23:31;;;;;;;28.93;26.13;;;;;;;;;;5050082;28;20933;-76
2022/08/28 00:26:00;;;;;;;26.20;23.67;;;;;;;;;;5050576;28;20496;-75
2022/08/28 00:28:26;;;;;;;27.07;24.60;;;;;;;;;;5050299;28;20830;-77
2022/08/28 00:30:54;;;;;;;27.07;24.30;;;;;;;;;;5050045;28;20503;-76
2022/08/28 00:33:23;;;;;;;26.73;24.33;;;;;;;;;;5049668;28;20449;-76
2022/08/28 00:35:51;;;;;;;26.87;24.43;;;;;;;;;;5049570;28;20551;-77
2022/08/28 00:38:19;;;;;;;26.93;24.43;;;;;;;;;;5049806;28;20460;-76
2022/08/28 00:40:48;;;;;;;28.83;26.23;;;;;;;;;;5050185;28;20579;-76
2022/08/28 00:43:23;;;;;;;26.07;23.80;;;;;;;;;;5049712;28;20491;-77
2022/08/28 00:45:50;;;;;;;26.63;24.13;;;;;;;;;;5049462;28;20519;-76
2022/08/28 00:48:17;;;;;;;27.77;24.53;;;;;;;;;;5050129;28;20445;-77
2022/08/28 00:53:30;;;;;;;26.50;23.97;;;;;;;;;;5053396;28;20424;-75
2022/08/28 00:55:58;;;;;;;25.93;23.27;;;;;;;;;;5049486;28;20547;-76
2022/08/28 00:58:26;;;;;;;26.23;23.73;;;;;;;;;;5049673;28;20453;-77
2022/08/28 01:00:53;;;;;;;26.60;23.87;;;;;;;;;;5049854;28;20503;-77
2022/08/28 01:03:21;;;;;;;27.23;24.83;;;;;;;;;;5049662;28;20511;-76
2022/08/28 01:05:48;;;;;;;27.93;25.33;;;;;;;;;;5049848;28;20457;-76
2022/08/28 01:08:16;;;;;;;26.27;23.73;;;;;;;;;;5049579;28;20462;-77
2022/08/28 01:10:44;;;;;;;27.10;24.40;;;;;;;;;;5049678;28;20445;-77
2022/08/28 01:13:11;;;;;;;26.10;23.70;;;;;;;;;;5051547;28;20917;-76
2022/08/28 01:15:40;;;;;;;24.27;21.97;;;;;;;;;;5052510;28;20571;-77
2022/08/28 01:18:09;;;;;;;25.60;22.97;;;;;;;;;;5050579;28;20889;-76
2022/08/28 01:20:38;;;;;;;26.67;24.17;;;;;;;;;;5049696;28;20812;-77
2022/08/28 01:23:10;;;;;;;24.90;22.70;;;;;;;;;;5049270;28;20499;-76
2022/08/28 01:25:39;;;;;;;27.00;24.47;;;;;;;;;;5050950;28;20832;-76
2022/08/28 01:28:07;;;;;;;26.57;23.97;;;;;;;;;;5054001;28;20445;-77
2022/08/28 01:30:34;;;;;;;27.23;24.33;;;;;;;;;;5062544;28;20438;-75
2022/08/28 01:33:01;;;;;;;26.17;23.57;;;;;;;;;;5070333;28;20441;-77
2022/08/28 01:35:30;;;;;;;24.03;21.83;;;;;;;;;;5070885;28;20477;-77
2022/08/28 01:37:57;;;;;;;26.17;23.70;;;;;;;;;;5071127;28;20446;-77
2022/08/28 01:40:27;;;;;;;25.43;23.00;;;;;;;;;;5071813;28;20468;-75
2022/08/28 01:42:55;;;;;;;26.47;23.77;;;;;;;;;;5059668;28;20460;-76
2022/08/28 01:45:23;;;;;;;28.77;25.90;;;;;;;;;;5053668;28;20441;-76
2022/08/28 01:47:50;;;;;;;25.53;23.10;;;;;;;;;;5053116;28;20473;-77
2022/08/28 01:50:18;;;;;;;27.93;24.93;;;;;;;;;;5053049;28;20456;-77
2022/08/28 01:52:46;;;;;;;27.10;24.50;;;;;;;;;;5052683;28;20941;-77
2022/08/28 01:55:13;;;;;;;26.97;24.27;;;;;;;;;;5052933;28;20568;-76
2022/08/28 01:57:43;;;;;;;27.20;24.70;;;;;;;;;;5052616;28;20465;-77
2022/08/28 02:00:12;;;;;;;26.93;24.30;;;;;;;;;;5052539;28;20495;-77
2022/08/28 02:02:39;;;;;;;26.80;24.17;;;;;;;;;;5052665;28;20445;-76
2022/08/28 02:05:07;;;;;;;26.87;24.20;;;;;;;;;;5052820;28;20869;-77
2022/08/28 02:07:34;;;;;;;26.03;23.50;;;;;;;;;;5052913;28;20477;-76
2022/08/28 02:10:01;;;;;;;28.53;25.63;;;;;;;;;;5052877;28;20597;-76
2022/08/28 02:12:29;;;;;;;26.97;24.30;;;;;;;;;;5052941;28;20479;-75
2022/08/28 02:14:56;;;;;;;26.80;24.20;;;;;;;;;;5052676;28;20472;-75
2022/08/28 02:17:24;;;;;;;26.80;24.20;;;;;;;;;;5052926;28;20531;-76
2022/08/28 02:19:51;;;;;;;27.80;25.00;;;;;;;;;;5052748;28;20445;-78
2022/08/28 02:22:18;;;;;;;26.63;23.93;;;;;;;;;;5052573;28;20449;-76
2022/08/28 02:24:46;;;;;;;27.10;24.33;;;;;;;;;;5052733;28;20442;-77
2022/08/28 02:27:13;;;;;;;28.23;25.47;;;;;;;;;;5052944;28;20533;-76
2022/08/28 02:29:40;;;;;;;27.77;24.97;;;;;;;;;;5052549;28;20445;-77
2022/08/28 02:32:07;;;;;;;28.63;25.70;;;;;;;;;;5052292;28;20441;-78
2022/08/28 02:34:35;;;;;;;28.00;25.20;;;;;;;;;;5052222;28;20457;-77
2022/08/28 02:37:02;;;;;;;28.40;25.70;;;;;;;;;;5052050;28;20513;-78
2022/08/28 02:39:30;;;;;;;28.80;25.90;;;;;;;;;;5055243;28;20448;-76
2022/08/28 02:41:57;;;;;;;27.93;25.13;;;;;;;;;;5065782;28;20509;-75
2022/08/28 02:44:24;;;;;;;28.33;25.40;;;;;;;;;;5065647;28;20471;-76
2022/08/28 02:46:51;;;;;;;28.07;25.30;;;;;;;;;;5066639;28;20520;-75
2022/08/28 02:49:18;;;;;;;28.70;25.90;;;;;;;;;;5068575;28;20457;-75
2022/08/28 02:51:47;;;;;;;27.93;25.07;;;;;;;;;;5069215;28;20438;-76
2022/08/28 02:54:14;;;;;;;29.40;25.77;;;;;;;;;;5067493;28;20499;-75
2022/08/28 02:56:41;;;;;;;30.93;25.80;;;;;;;;;;5068377;28;20489;-77
2022/08/28 02:59:08;;;;;;;28.70;25.70;;;;;;;;;;5059944;28;20437;-76
2022/08/28 03:01:35;;;;;;;28.10;25.30;;;;;;;;;;5052793;28;20445;-76
2022/08/28 03:04:02;;;;;;;29.77;26.70;;;;;;;;;;5052535;28;20507;-76
2022/08/28 03:06:29;;;;;;;30.40;27.13;;;;;;;;;;5052834;28;20465;-76
2022/08/28 03:08:58;;;;;;;28.10;25.20;;;;;;;;;;5052477;28;20453;-76
2022/08/28 03:11:25;;;;;;;29.80;26.87;;;;;;;;;;5052324;28;20441;-76
2022/08/28 03:13:53;;;;;;;28.57;25.47;;;;;;;;;;5051887;28;20452;-76
2022/08/28 03:16:20;;;;;;;27.93;25.10;;;;;;;;;;5052193;28;20488;-76
2022/08/28 03:18:47;;;;;;;29.27;26.47;;;;;;;;;;5052323;28;20446;-77
2022/08/28 03:21:14;;;;;;;29.47;26.27;;;;;;;;;;5051978;28;20441;-77
2022/08/28 03:23:41;;;;;;;29.60;25.70;;;;;;;;;;5051475;28;20487;-75
2022/08/28 03:26:12;;;;;;;30.50;27.20;;;;;;;;;;5051836;28;20552;-76
2022/08/28 03:28:40;;;;;;;29.17;26.33;;;;;;;;;;5051364;28;20445;-75
2022/08/28 03:31:07;;;;;;;28.17;25.13;;;;;;;;;;5051214;28;20453;-75
2022/08/28 03:33:34;;;;;;;28.67;25.63;;;;;;;;;;5050914;28;20454;-77
2022/08/28 03:36:02;;;;;;;28.70;25.73;;;;;;;;;;5050645;28;20840;-77
2022/08/28 03:38:29;;;;;;;30.10;27.07;;;;;;;;;;5050686;28;20965;-76
2022/08/28 03:40:56;;;;;;;30.67;27.50;;;;;;;;;;5048752;28;20553;-76
2022/08/28 03:43:26;;;;;;;30.03;26.87;;;;;;;;;;5047598;28;20450;-77
2022/08/28 03:45:55;;;;;;;31.03;27.70;;;;;;;;;;5050655;28;20472;-77
2022/08/28 03:48:23;;;;;;;29.97;26.87;;;;;;;;;;5050483;28;20434;-77
2022/08/28 03:50:52;;;;;;;30.17;26.97;;;;;;;;;;5050010;28;20454;-76
2022/08/28 03:53:19;;;;;;;30.43;27.20;;;;;;;;;;5050101;28;20453;-76
2022/08/28 03:55:46;;;;;;;31.50;27.40;;;;;;;;;;5050546;28;20503;-75
2022/08/28 03:58:13;;;;;;;33.17;26.23;;;;;;;;;;5051162;28;20449;-76
2022/08/28 04:00:41;;;;;;;30.63;27.43;;;;;;;;;;5051159;28;20979;-76
2022/08/28 04:03:11;;;;;;;30.43;27.13;;;;;;;;;;5050379;28;20528;-77
2022/08/28 04:05:38;;;;;;;29.40;26.23;;;;;;;;;;5050274;28;20452;-76
2022/08/28 04:08:05;;;;;;;27.90;24.97;;;;;;;;;;5050063;28;20967;-76
2022/08/28 04:10:33;;;;;;;32.10;25.90;;;;;;;;;;5050424;28;20441;-76
2022/08/28 04:13:01;;;;;;;29.60;25.63;;;;;;;;;;5050489;28;20464;-77
2022/08/28 04:15:29;;;;;;;28.77;25.90;;;;;;;;;;5050675;28;20458;-77
2022/08/28 04:17:57;;;;;;;29.27;26.20;;;;;;;;;;5051104;28;20446;-76
2022/08/28 04:20:25;;;;;;;27.47;24.67;;;;;;;;;;5050451;28;20460;-77
2022/08/28 04:22:52;;;;;;;28.17;25.53;;;;;;;;;;5055773;28;20457;-76
2022/08/28 04:25:20;;;;;;;27.93;24.93;;;;;;;;;;5059784;28;20510;-76
2022/08/28 04:27:47;;;;;;;28.37;25.57;;;;;;;;;;5063951;28;20465;-76
2022/08/28 04:30:14;;;;;;;25.43;22.73;;;;;;;;;;5064548;28;20445;-76
2022/08/28 04:32:41;;;;;;;26.90;24.20;;;;;;;;;;5058057;28;20441;-76
2022/08/28 04:35:10;;;;;;;28.23;24.07;;;;;;;;;;5050346;28;20453;-76
2022/08/28 04:37:38;;;;;;;25.50;22.10;;;;;;;;;;5050021;28;20580;-75
2022/08/28 04:40:07;;;;;;;25.17;22.67;;;;;;;;;;5050305;28;20582;-76
2022/08/28 04:42:34;;;;;;;26.53;23.70;;;;;;;;;;5049877;28;20445;-76
2022/08/28 04:45:01;;;;;;;25.73;23.23;;;;;;;;;;5049516;28;20499;-77
2022/08/28 04:47:29;;;;;;;23.93;21.53;;;;;;;;;;5049889;28;20482;-76
2022/08/28 04:49:57;;;;;;;24.80;22.53;;;;;;;;;;5050062;28;20448;-76
2022/08/28 04:52:25;;;;;;;25.50;23.00;;;;;;;;;;5050130;28;20491;-77
2022/08/28 04:54:52;;;;;;;24.73;22.30;;;;;;;;;;5049914;28;20549;-77
2022/08/28 04:57:19;;;;;;;25.50;23.00;;;;;;;;;;5050097;28;21038;-78
2022/08/28 04:59:46;;;;;;;24.00;21.47;;;;;;;;;;5050191;28;20503;-76
2022/08/28 05:02:13;;;;;;;22.93;20.77;;;;;;;;;;5053702;28;20506;-75
2022/08/28 05:04:40;;;;;;;23.60;21.27;;;;;;;;;;5053500;28;21192;-76
2022/08/28 05:07:07;;;;;;;24.27;21.90;;;;;;;;;;5054099;28;20896;-76
2022/08/28 05:09:36;;;;;;;23.60;21.20;;;;;;;;;;5048456;28;20453;-75
2022/08/28 05:12:03;;;;;;;23.67;21.27;;;;;;;;;;5051079;28;20437;-77
2022/08/28 05:14:31;;;;;;;25.10;22.40;;;;;;;;;;5053152;28;20437;-76
2022/08/28 05:16:58;;;;;;;24.67;22.17;;;;;;;;;;5054412;28;20500;-76
2022/08/28 05:19:26;;;;;;;25.47;22.97;;;;;;;;;;5059930;28;20922;-76
2022/08/28 05:21:54;;;;;;;25.40;23.00;;;;;;;;;;5060473;28;20473;-75
2022/08/28 05:24:21;;;;;;;24.13;21.83;;;;;;;;;;5058814;28;20453;-77
2022/08/28 05:26:50;;;;;;;24.73;22.43;;;;;;;;;;5059676;28;20710;-78
2022/08/28 05:29:17;;;;;;;24.77;22.20;;;;;;;;;;5053460;28;20459;-77
2022/08/28 05:31:44;;;;;;;26.30;23.60;;;;;;;;;;5053162;28;20579;-77
2022/08/28 05:34:11;;;;;;;23.77;21.37;;;;;;;;;;5052889;28;20446;-77
2022/08/28 05:36:39;;;;;;;25.20;22.57;;;;;;;;;;5053034;28;20481;-77
2022/08/28 05:39:07;;;;;;;26.30;23.60;;;;;;;;;;5053202;28;20452;-78
2022/08/28 05:41:34;;;;;;;24.30;21.70;;;;;;;;;;5053409;28;20441;-76
2022/08/28 05:44:04;;;;;;;24.40;22.00;;;;;;;;;;5053374;28;20968;-77
2022/08/28 05:46:31;;;;;;;24.70;22.20;;;;;;;;;;5053483;28;20480;-77
2022/08/28 05:48:59;;;;;;;25.17;22.67;;;;;;;;;;5053729;28;20449;-77
2022/08/28 05:51:26;;;;;;;24.53;22.03;;;;;;;;;;5053287;28;20449;-76
2022/08/28 05:53:54;;;;;;;23.23;20.87;;;;;;;;;;5052916;28;20878;-78
2022/08/28 05:56:22;;;;;;;24.20;21.63;;;;;;;;;;5052828;28;20481;-77
2022/08/28 05:58:49;;;;;;;22.00;20.00;;;;;;;;;;5053487;28;20450;-79
2022/08/28 06:01:18;;;;;;;22.27;20.23;;;;;;;;;;5053050;28;20476;-77
2022/08/28 06:03:46;;;;;;;22.63;20.23;;;;;;;;;;5052386;28;20472;-77
2022/08/28 06:06:13;;;;;;;24.10;21.07;;;;;;;;;;5052584;28;21001;-77
2022/08/28 06:08:41;;;;;;;22.33;18.90;;;;;;;;;;5052814;28;20464;-76
2022/08/28 06:11:08;;;;;;;25.33;21.50;;;;;;;;;;5050446;28;20453;-77
2022/08/28 06:13:36;;;;;;;21.77;19.57;;;;;;;;;;5060665;28;20464;-77
2022/08/28 06:16:04;;;;;;;23.20;20.80;;;;;;;;;;5060158;28;20473;-77
2022/08/28 06:18:32;;;;;;;21.00;19.10;;;;;;;;;;5052630;28;20503;-78
2022/08/28 06:21:01;;;;;;;20.87;18.93;;;;;;;;;;5053058;28;20492;-77
2022/08/28 06:23:28;;;;;;;20.90;18.90;;;;;;;;;;5052082;28;20473;-77
2022/08/28 06:25:55;;;;;;;20.97;18.73;;;;;;;;;;5052580;28;20453;-77
2022/08/28 06:28:24;;;;;;;19.60;17.90;;;;;;;;;;5052319;28;20971;-78
2022/08/28 06:30:52;;;;;;;21.97;19.63;;;;;;;;;;5052333;28;20515;-77
2022/08/28 06:33:20;;;;;;;20.83;18.83;;;;;;;;;;5052156;28;20769;-78
2022/08/28 06:35:49;;;;;;;19.90;18.10;;;;;;;;;;5052075;28;20489;-77
2022/08/28 06:38:17;;;;;;;19.10;17.30;;;;;;;;;;5051886;28;20599;-77
2022/08/28 06:40:45;;;;;;;20.43;18.50;;;;;;;;;;5052267;28;20453;-76
2022/08/28 06:43:14;;;;;;;18.20;16.30;;;;;;;;;;5052264;28;20442;-77
2022/08/28 06:45:41;;;;;;;18.73;16.93;;;;;;;;;;5052142;28;20446;-78
2022/08/28 06:48:09;;;;;;;18.63;16.67;;;;;;;;;;5053089;28;20438;-77
2022/08/28 06:50:39;;;;;;;19.37;17.40;;;;;;;;;;5053708;28;20524;-76
2022/08/28 06:53:08;;;;;;;18.03;16.07;;;;;;;;;;5059277;28;20941;-76
2022/08/28 06:55:35;;;;;;;18.63;16.70;;;;;;;;;;5057010;28;20957;-77
2022/08/28 06:58:02;;;;;;;18.07;16.47;;;;;;;;;;5052665;28;20543;-77
2022/08/28 07:00:29;;;;;;;17.40;15.80;;;;;;;;;;5053145;28;20445;-78
2022/08/28 07:02:56;;;;;;;17.33;15.83;;;;;;;;;;5052177;28;20454;-78
2022/08/28 07:05:23;;;;;;;17.07;15.40;;;;;;;;;;5046127;28;20450;-78
2022/08/28 07:07:51;;;;;;;17.13;15.57;;;;;;;;;;5052669;28;20457;-78
2022/08/28 07:10:19;;;;;;;17.73;16.13;;;;;;;;;;5052720;28;20434;-77
2022/08/28 07:12:46;;;;;;;17.53;15.73;;;;;;;;;;5052013;28;20449;-77
2022/08/28 07:15:13;;;;;;;17.00;15.37;;;;;;;;;;5051502;28;20937;-78
2022/08/28 07:17:40;;;;;;;17.87;14.90;;;;;;;;;;5046023;28;20504;-77
2022/08/28 07:20:09;;;;;;;16.73;15.00;;;;;;;;;;5051628;28;20877;-79
2022/08/28 07:22:36;;;;;;;19.10;17.30;;;;;;;;;;5051145;28;20936;-78
2022/08/28 07:25:04;;;;;;;18.80;16.90;;;;;;;;;;5051200;28;20487;-76
2022/08/28 07:27:32;;;;;;;18.27;16.37;;;;;;;;;;5051298;28;20466;-76
2022/08/28 07:30:00;;;;;;;19.20;16.53;;;;;;;;;;5052100;28;20499;-76
2022/08/28 07:32:28;;;;;;;17.07;15.67;;;;;;;;;;5053639;28;20460;-77
2022/08/28 07:34:55;;;;;;;17.63;16.03;;;;;;;;;;5052928;28;20541;-77
2022/08/28 07:37:23;;;;;;;17.60;15.90;;;;;;;;;;5052903;28;20552;-77
2022/08/28 07:39:50;;;;;;;21.33;15.80;;;;;;;;;;5051900;28;20760;-77
2022/08/28 07:45:01;;;;;;;17.37;15.83;;;;;;;;;;5051686;28;20461;-77
2022/08/28 07:47:30;;;;;;;17.60;15.90;;;;;;;;;;5051161;28;20562;-77
2022/08/28 07:49:59;;;;;;;18.80;16.90;;;;;;;;;;5051164;28;20456;-76
2022/08/28 07:52:28;;;;;;;16.20;14.60;;;;;;;;;;5051431;28;20450;-78
2022/08/28 07:54:55;;;;;;;16.90;15.13;;;;;;;;;;5052143;28;20460;-78
2022/08/28 07:57:22;;;;;;;16.73;15.23;;;;;;;;;;5051627;28;20481;-77
2022/08/28 07:59:51;;;;;;;17.27;14.83;;;;;;;;;;5052329;28;20445;-79
2022/08/28 08:02:19;;;;;;;16.83;15.30;;;;;;;;;;5046200;28;20460;-78
2022/08/28 08:04:46;;;;;;;16.60;14.93;;;;;;;;;;5038044;28;20850;-79
2022/08/28 08:07:13;;;;;;;17.17;15.73;;;;;;;;;;5051893;28;20465;-77
2022/08/28 08:09:42;;;;;;;15.80;14.60;;;;;;;;;;5051824;28;20468;-78
2022/08/28 08:12:10;;;;;;;17.83;16.23;;;;;;;;;;5051813;28;20438;-77
2022/08/28 08:14:38;;;;;;;19.50;17.03;;;;;;;;;;5051572;28;20885;-77
2022/08/28 08:17:06;;;;;;;19.20;15.23;;;;;;;;;;5051988;28;20859;-77
2022/08/28 08:19:35;;;;;;;16.63;15.13;;;;;;;;;;5051565;28;20456;-78
2022/08/28 08:22:02;;;;;;;16.40;14.83;;;;;;;;;;5051581;28;20503;-78
2022/08/28 08:24:29;;;;;;;16.90;15.30;;;;;;;;;;5052076;28;20499;-77
2022/08/28 08:26:58;;;;;;;18.00;16.30;;;;;;;;;;5055816;28;20469;-78
2022/08/28 08:29:25;;;;;;;18.47;16.70;;;;;;;;;;5054367;28;20450;-77
2022/08/28 08:31:56;;;;;;;17.43;15.73;;;;;;;;;;5051626;28;20450;-78
2022/08/28 08:34:24;;;;;;;18.30;16.30;;;;;;;;;;5045071;28;20536;-78
2022/08/28 08:36:53;;;;;;;16.07;14.80;;;;;;;;;;5057035;28;20469;-76
2022/08/28 08:39:20;;;;;;;17.43;15.57;;;;;;;;;;5057727;28;20450;-77
2022/08/28 08:41:49;;;;;;;17.47;15.67;;;;;;;;;;5059497;28;20540;-78
2022/08/28 08:44:22;;;;;;;15.87;14.47;;;;;;;;;;5056837;28;20448;-77
2022/08/28 08:46:51;;;;;;;17.90;16.37;;;;;;;;;;5056877;28;21034;-77
2022/08/28 08:49:21;;;;;;;18.07;16.33;;;;;;;;;;5057912;28;20453;-78
2022/08/28 08:51:49;;;;;;;19.20;16.77;;;;;;;;;;5059661;28;20472;-80
2022/08/28 08:54:19;;;;;;;16.53;15.10;;;;;;;;;;5067639;28;20552;-78
2022/08/28 08:56:47;;;;;;;16.40;14.80;;;;;;;;;;5072402;28;20568;-77
2022/08/28 08:59:15;;;;;;;16.30;14.80;;;;;;;;;;5076191;28;20465;-78
2022/08/28 09:01:46;;;;;;;17.70;16.10;;;;;;;;;;5075809;28;20437;-77
2022/08/28 09:04:21;;;;;;;17.27;15.60;;;;;;;;;;5077385;28;20443;-77
2022/08/28 09:06:50;;;;;;;15.83;14.23;;;;;;;;;;5076744;28;20453;-77
2022/08/28 09:09:21;;;;;;;16.23;14.83;;;;;;;;;;5061795;28;20491;-75
2022/08/28 09:11:52;;;;;;;16.43;13.40;;;;;;;;;;5056774;28;21005;-77
2022/08/28 09:14:24;;;;;;;14.67;13.37;;;;;;;;;;5057087;28;20445;-76
2022/08/28 09:16:52;;;;;;;16.70;15.20;;;;;;;;;;5057998;28;20553;-76
2022/08/28 09:19:20;;;;;;;15.90;14.07;;;;;;;;;;5057772;28;20496;-78
2022/08/28 09:21:48;;;;;;;15.60;14.20;;;;;;;;;;5057072;28;20941;-76
2022/08/28 09:24:21;;;;;;;16.13;14.80;;;;;;;;;;5056878;28;20453;-76
2022/08/28 09:26:52;;;;;;;15.43;14.23;;;;;;;;;;5056192;28;20590;-77
2022/08/28 09:29:24;;;;;;;14.77;13.47;;;;;;;;;;5056759;28;20441;-77
2022/08/28 09:31:51;;;;;;;13.53;12.43;;;;;;;;;;5056639;28;20448;-77
2022/08/28 09:34:23;;;;;;;13.90;12.60;;;;;;;;;;5056159;28;20441;-77
2022/08/28 09:36:51;;;;;;;14.20;12.90;;;;;;;;;;5056202;28;20561;-76
2022/08/28 09:39:20;;;;;;;13.17;11.90;;;;;;;;;;5056093;28;20531;-77
2022/08/28 09:44:56;;;;;;;13.90;12.50;;;;;;;;;;5056474;28;20417;-77
2022/08/28 09:47:37;;;;;;;12.13;11.00;;;;;;;;;;5054215;28;20524;-77
2022/08/28 09:50:22;;;;;;;13.70;12.33;;;;;;;;;;5053217;28;20444;-78
2022/08/28 09:52:50;;;;;;;13.33;12.07;;;;;;;;;;5053211;28;20449;-77
2022/08/28 09:55:22;;;;;;;11.87;10.87;;;;;;;;;;5053481;28;20445;-76
2022/08/28 09:57:49;;;;;;;11.27;10.37;;;;;;;;;;5053066;28;21015;-76
2022/08/28 10:00:16;;;;;;;11.77;10.57;;;;;;;;;;5053863;28;20449;-77
2022/08/28 10:02:46;;;;;;;11.80;10.90;;;;;;;;;;5052798;28;20539;-76
2022/08/28 10:05:15;;;;;;;11.17;10.17;;;;;;;;;;5052922;28;20838;-77
2022/08/28 10:07:46;;;;;;;10.40;9.60;;;;;;;;;;5054059;28;20471;-76
2022/08/28 10:10:18;;;;;;;12.27;11.20;;;;;;;;;;5054288;28;20434;-77
2022/08/28 10:12:57;;;;;;;12.97;11.77;;;;;;;;;;5054845;28;20495;-77
2022/08/28 10:15:29;;;;;;;13.13;11.90;;;;;;;;;;5054662;28;20485;-77
2022/08/28 10:18:06;;;;;;;11.80;10.70;;;;;;;;;;5055758;28;20474;-77
2022/08/28 10:20:38;;;;;;;11.33;10.33;;;;;;;;;;5056608;28;20453;-75
2022/08/28 10:23:08;;;;;;;11.70;10.70;;;;;;;;;;5060907;28;20434;-77
2022/08/28 10:25:39;;;;;;;10.60;9.70;;;;;;;;;;5056840;28;20792;-76
2022/08/28 10:28:18;;;;;;;10.43;9.43;;;;;;;;;;5055186;28;20441;-77
2022/08/28 10:30:52;;;;;;;10.17;9.37;;;;;;;;;;5053716;28;20457;-76
2022/08/28 10:33:25;;;;;;;10.50;9.70;;;;;;;;;;5052685;28;20456;-77
2022/08/28 10:35:53;;;;;;;9.70;8.80;;;;;;;;;;5054109;28;20465;-78
2022/08/28 10:38:23;;;;;;;10.23;9.33;;;;;;;;;;5053656;28;20508;-77
2022/08/28 10:40:54;;;;;;;10.60;9.60;;;;;;;;;;5053626;28;20866;-77
2022/08/28 10:43:26;;;;;;;9.10;8.20;;;;;;;;;;5054246;28;20417;-76
2022/08/28 10:45:54;;;;;;;10.40;9.50;;;;;;;;;;5052851;28;20477;-77
2022/08/28 10:48:23;;;;;;;10.47;9.67;;;;;;;;;;5053071;28;20518;-77
2022/08/28 10:50:51;;;;;;;9.10;8.27;;;;;;;;;;5055046;28;20798;-75
2022/08/28 10:53:19;;;;;;;9.77;8.90;;;;;;;;;;5053122;28;20816;-77
2022/08/28 10:55:52;;;;;;;9.33;8.53;;;;;;;;;;5052598;28;20441;-77
2022/08/28 10:58:20;;;;;;;8.80;8.00;;;;;;;;;;5051875;28;20489;-77
2022/08/28 11:00:49;;;;;;;8.87;8.17;;;;;;;;;;5052591;28;20606;-78
2022/08/28 11:03:18;;;;;;;10.90;10.00;;;;;;;;;;5052089;28;20446;-78
2022/08/28 11:05:49;;;;;;;12.00;10.90;;;;;;;;;;5054594;28;20972;-77
2022/08/28 11:08:22;;;;;;;10.23;9.53;;;;;;;;;;5053145;28;20445;-75
2022/08/28 11:10:50;;;;;;;10.87;9.97;;;;;;;;;;5052068;28;20446;-76
2022/08/28 11:13:32;;;;;;;10.50;9.60;;;;;;;;;;5058879;28;20503;-78
2022/08/28 11:16:01;;;;;;;9.77;8.97;;;;;;;;;;5052041;28;20472;-79
2022/08/28 11:18:49;;;;;;;10.30;9.40;;;;;;;;;;5053996;28;20484;-77
2022/08/28 11:21:20;;;;;;;9.77;8.87;;;;;;;;;;5065534;28;20442;-79
2022/08/28 11:23:50;;;;;;;8.67;7.97;;;;;;;;;;5065792;28;20442;-78
2022/08/28 11:26:24;;;;;;;12.63;8.93;;;;;;;;;;5065295;28;20466;-79
2022/08/28 11:28:52;;;;;;;9.30;8.57;;;;;;;;;;5063224;28;20445;-77
2022/08/28 11:31:31;;;;;;;9.37;8.67;;;;;;;;;;5063011;28;20511;-77
2022/08/28 11:33:59;;;;;;;8.53;7.83;;;;;;;;;;5053192;28;20448;-78
2022/08/28 11:36:45;;;;;;;9.60;8.80;;;;;;;;;;5051891;28;20560;-78
2022/08/28 11:39:19;;;;;;;9.60;8.70;;;;;;;;;;5052086;28;20485;-77
2022/08/28 11:42:05;;;;;;;8.73;8.03;;;;;;;;;;5051589;28;20446;-77
2022/08/28 11:44:42;;;;;;;9.27;8.50;;;;;;;;;;5053325;28;20465;-77
2022/08/28 11:47:27;;;;;;;8.77;8.07;;;;;;;;;;5051175;28;20481;-78
2022/08/28 11:50:03;;;;;;;10.27;9.47;;;;;;;;;;5051016;28;20495;-77
2022/08/28 11:52:48;;;;;;;9.43;8.53;;;;;;;;;;5050240;28;20452;-77
2022/08/28 11:55:20;;;;;;;9.53;8.83;;;;;;;;;;5050487;28;20442;-76
2022/08/28 11:57:53;;;;;;;9.53;8.73;;;;;;;;;;5050350;28;20479;-78
2022/08/28 12:00:21;;;;;;;8.80;8.00;;;;;;;;;;5050707;28;20658;-77
2022/08/28 12:02:51;;;;;;;8.57;7.97;;;;;;;;;;5050063;28;20445;-76
2022/08/28 12:05:37;;;;;;;8.57;7.77;;;;;;;;;;5051141;28;20541;-76
2022/08/28 12:08:05;;;;;;;9.13;8.30;;;;;;;;;;5050747;28;20518;-76
2022/08/28 12:10:51;;;;;;;8.57;7.90;;;;;;;;;;5050146;28;20536;-77
2022/08/28 12:13:32;;;;;;;9.80;8.90;;;;;;;;;;5050365;28;20457;-77
2022/08/28 12:16:04;;;;;;;9.90;8.30;;;;;;;;;;5050601;28;20496;-76
2022/08/28 12:19:01;;;;;;;9.60;8.60;;;;;;;;;;5050807;28;20477;-76
2022/08/28 12:21:29;;;;;;;8.50;7.60;;;;;;;;;;4969395;28;20941;-77
2022/08/28 12:23:58;;;;;;;8.13;7.33;;;;;;;;;;5031565;28;20513;-77
2022/08/28 12:26:28;;;;;;;8.77;8.17;;;;;;;;;;5050735;28;20445;-78
2022/08/28 12:28:56;;;;;;;6.93;6.53;;;;;;;;;;5051051;28;20453;-77
2022/08/28 12:34:38;;;;;;;8.67;8.07;;;;;;;;;;5039962;28;20437;-78
2022/08/28 12:37:08;;;;;;;7.73;7.13;;;;;;;;;;5050439;28;20477;-78
2022/08/28 12:39:37;;;;;;;8.87;8.00;;;;;;;;;;5050404;28;20485;-76
2022/08/28 12:42:04;;;;;;;10.57;9.63;;;;;;;;;;5050424;28;20700;-78
2022/08/28 12:44:33;;;;;;;8.40;7.70;;;;;;;;;;5049915;28;20449;-76
2022/08/28 12:47:00;;;;;;;8.33;7.70;;;;;;;;;;5050215;28;20501;-77
2022/08/28 12:49:31;;;;;;;8.50;7.80;;;;;;;;;;5050242;28;20949;-76
2022/08/28 12:52:09;;;;;;;8.43;7.73;;;;;;;;;;5050095;28;20491;-78
2022/08/28 12:54:38;;;;;;;8.40;7.40;;;;;;;;;;5049641;28;20449;-77
2022/08/28 12:57:07;;;;;;;7.33;6.80;;;;;;;;;;5049587;28;20461;-78
2022/08/28 12:59:35;;;;;;;10.80;7.73;;;;;;;;;;5050319;28;20534;-77
2022/08/28 13:02:03;;;;;;;7.73;6.83;;;;;;;;;;5050454;28;20464;-76
2022/08/28 13:04:32;;;;;;;7.00;6.40;;;;;;;;;;5064993;28;20446;-77
2022/08/28 13:07:02;;;;;;;7.23;6.70;;;;;;;;;;5071645;28;20488;-78
2022/08/28 13:09:29;;;;;;;6.77;6.37;;;;;;;;;;5073268;28;20464;-78
2022/08/28 13:11:57;;;;;;;8.70;6.53;;;;;;;;;;5073040;28;20433;-78
2022/08/28 13:14:37;;;;;;;7.13;6.43;;;;;;;;;;5055337;28;20441;-77
2022/08/28 13:17:05;;;;;;;7.67;7.07;;;;;;;;;;5051070;28;20465;-78
2022/08/28 13:19:33;;;;;;;7.47;6.87;;;;;;;;;;5050258;28;20485;-78
2022/08/28 13:22:01;;;;;;;7.23;6.63;;;;;;;;;;5051789;28;20469;-77
2022/08/28 13:24:37;;;;;;;7.43;6.77;;;;;;;;;;5053418;28;20458;-76
2022/08/28 13:27:07;;;;;;;6.27;5.77;;;;;;;;;;5054169;28;20556;-77
2022/08/28 13:29:35;;;;;;;7.83;6.80;;;;;;;;;;5054467;28;20445;-78
2022/08/28 13:32:03;;;;;;;7.27;6.63;;;;;;;;;;5053929;28;20446;-77
2022/08/28 13:34:30;;;;;;;6.33;5.80;;;;;;;;;;5053137;28;20461;-77
2022/08/28 13:36:58;;;;;;;7.93;6.23;;;;;;;;;;5052881;28;20535;-77
2022/08/28 13:39:27;;;;;;;6.60;6.00;;;;;;;;;;5053675;28;20484;-78
2022/08/28 13:41:56;;;;;;;6.87;5.97;;;;;;;;;;5053732;28;20445;-77
2022/08/28 13:44:29;;;;;;;5.90;5.40;;;;;;;;;;5053507;28;20441;-77
2022/08/28 13:46:56;;;;;;;7.93;6.50;;;;;;;;;;5053232;28;20531;-78
2022/08/28 13:49:23;;;;;;;6.17;5.57;;;;;;;;;;5053638;28;20442;-77
2022/08/28 13:51:50;;;;;;;6.03;5.53;;;;;;;;;;5053802;28;20953;-77
2022/08/28 13:54:17;;;;;;;7.53;5.80;;;;;;;;;;5053059;28;20441;-77
2022/08/28 13:56:44;;;;;;;6.57;6.07;;;;;;;;;;5053596;28;20470;-77
2022/08/28 13:59:11;;;;;;;6.80;6.00;;;;;;;;;;5053407;28;20488;-77
2022/08/28 14:04:25;;;;;;;6.10;5.70;;;;;;;;;;5052997;28;20426;-77
2022/08/28 14:06:52;;;;;;;6.57;6.00;;;;;;;;;;5052592;28;20819;-78
2022/08/28 14:09:19;;;;;;;5.80;5.40;;;;;;;;;;5052933;28;20445;-77
2022/08/28 14:11:46;;;;;;;6.80;6.30;;;;;;;;;;5052435;28;20929;-78
2022/08/28 14:14:14;;;;;;;5.87;5.47;;;;;;;;;;5052774;28;20511;-78
2022/08/28 14:16:44;;;;;;;6.40;5.80;;;;;;;;;;5052982;28;20545;-77
2022/08/28 14:19:11;;;;;;;6.33;5.40;;;;;;;;;;5052395;28;20963;-77
2022/08/28 14:21:39;;;;;;;6.33;5.83;;;;;;;;;;5053187;28;20441;-77
2022/08/28 14:24:07;;;;;;;6.73;6.13;;;;;;;;;;5052160;28;20920;-77
2022/08/28 14:26:34;;;;;;;6.27;5.80;;;;;;;;;;5052611;28;20815;-77
2022/08/28 14:29:02;;;;;;;11.00;5.90;;;;;;;;;;5053032;28;20497;-78
2022/08/28 14:31:29;;;;;;;6.20;5.67;;;;;;;;;;5052774;28;20851;-77
2022/08/28 14:33:58;;;;;;;6.50;6.00;;;;;;;;;;5051806;28;20507;-78
2022/08/28 14:36:26;;;;;;;6.00;5.47;;;;;;;;;;5052267;28;20980;-77
2022/08/28 14:38:54;;;;;;;6.40;5.87;;;;;;;;;;5052687;28;20446;-77
2022/08/28 14:41:21;;;;;;;5.20;4.90;;;;;;;;;;5052497;28;20449;-77
2022/08/28 14:43:49;;;;;;;5.70;5.17;;;;;;;;;;5051994;28;20442;-78
2022/08/28 14:46:16;;;;;;;5.70;5.07;;;;;;;;;;5053005;28;20571;-77
2022/08/28 14:48:43;;;;;;;5.60;5.23;;;;;;;;;;5053116;28;20457;-78